sensor_id;sensor_type;location;lat;lon;timestamp;temperature;humidity
36654;DHT22;22650;49.350;20.898;2023-03-03T00:00:40;-3.30;99.90
36654;DHT22;22650;49.350;20.898;2023-03-03T00:03:16;-3.30;99.90
36654;DHT22;22650;49.350;20.898;2023-03-03T00:05:50;-3.30;99.90
36654;DHT22;22650;49.350;20.898;2023-03-03T00:08:24;-3.40;99.90
36654;DHT22;22650;49.350;20.898;2023-03-03T00:10:57;-3.40;99.90
36654;DHT22;22650;49.350;20.898;2023-03-03T00:13:32;-3.40;99.90
36654;DHT22;22650;49.350;20.898;2023-03-03T00:16:14;-3.40;99.90
36654;DHT22;22650;49.350;20.898;2023-03-03T00:18:49;-3.50;99.90
36654;DHT22;22650;49.350;20.898;2023-03-03T00:21:26;-3.50;99.90
36654;DHT22;22650;49.350;20.898;2023-03-03T00:24:14;-3.50;99.90
36654;DHT22;22650;49.350;20.898;2023-03-03T00:26:50;-3.50;99.90
36654;DHT22;22650;49.350;20.898;2023-03-03T00:29:29;-3.60;99.90
36654;DHT22;22650;49.350;20.898;2023-03-03T00:32:23;-3.60;99.90
36654;DHT22;22650;49.350;20.898;2023-03-03T00:35:17;-3.60;99.90
36654;DHT22;22650;49.350;20.898;2023-03-03T00:37:55;-3.60;99.90
36654;DHT22;22650;49.350;20.898;2023-03-03T00:40:33;-3.60;99.90
36654;DHT22;22650;49.350;20.898;2023-03-03T00:43:16;-3.70;99.90
36654;DHT22;22650;49.350;20.898;2023-03-03T00:45:51;-3.70;99.90
36654;DHT22;22650;49.350;20.898;2023-03-03T00:48:28;-3.70;99.90
36654;DHT22;22650;49.350;20.898;2023-03-03T00:51:15;-3.70;99.90
36654;DHT22;22650;49.350;20.898;2023-03-03T00:53:51;-3.80;99.90
36654;DHT22;22650;49.350;20.898;2023-03-03T00:56:25;-3.80;99.90
36654;DHT22;22650;49.350;20.898;2023-03-03T00:58:59;-3.80;99.90
36654;DHT22;22650;49.350;20.898;2023-03-03T01:01:33;-3.80;99.90
36654;DHT22;22650;49.350;20.898;2023-03-03T01:04:08;-3.80;99.90
36654;DHT22;22650;49.350;20.898;2023-03-03T01:06:42;-3.80;99.90
36654;DHT22;22650;49.350;20.898;2023-03-03T01:09:15;-3.90;99.90
36654;DHT22;22650;49.350;20.898;2023-03-03T01:11:49;-3.90;99.90
36654;DHT22;22650;49.350;20.898;2023-03-03T01:14:23;-3.90;99.90
36654;DHT22;22650;49.350;20.898;2023-03-03T01:16:57;-3.90;99.90
36654;DHT22;22650;49.350;20.898;2023-03-03T01:19:32;-4.00;99.90
36654;DHT22;22650;49.350;20.898;2023-03-03T01:22:05;-4.00;99.90
36654;DHT22;22650;49.350;20.898;2023-03-03T01:24:39;-4.00;99.90
36654;DHT22;22650;49.350;20.898;2023-03-03T01:27:12;-4.00;99.90
36654;DHT22;22650;49.350;20.898;2023-03-03T01:29:46;-4.00;99.90
36654;DHT22;22650;49.350;20.898;2023-03-03T01:32:20;-4.10;99.90
36654;DHT22;22650;49.350;20.898;2023-03-03T01:34:55;-4.10;99.90
36654;DHT22;22650;49.350;20.898;2023-03-03T01:37:28;-4.10;99.90
36654;DHT22;22650;49.350;20.898;2023-03-03T01:40:03;-4.10;99.90
36654;DHT22;22650;49.350;20.898;2023-03-03T01:42:36;-4.10;99.90
36654;DHT22;22650;49.350;20.898;2023-03-03T01:45:14;-4.10;99.90
36654;DHT22;22650;49.350;20.898;2023-03-03T01:47:53;-4.20;99.90
36654;DHT22;22650;49.350;20.898;2023-03-03T01:50:44;-4.20;99.90
36654;DHT22;22650;49.350;20.898;2023-03-03T01:53:29;-4.20;99.90
36654;DHT22;22650;49.350;20.898;2023-03-03T01:56:06;-4.30;99.90
36654;DHT22;22650;49.350;20.898;2023-03-03T01:58:44;-4.30;99.90
36654;DHT22;22650;49.350;20.898;2023-03-03T02:01:21;-4.30;99.90
36654;DHT22;22650;49.350;20.898;2023-03-03T02:03:56;-4.30;99.90
36654;DHT22;22650;49.350;20.898;2023-03-03T02:06:35;-4.30;99.90
36654;DHT22;22650;49.350;20.898;2023-03-03T02:09:13;-4.40;99.90
36654;DHT22;22650;49.350;20.898;2023-03-03T02:11:50;-4.40;99.90
36654;DHT22;22650;49.350;20.898;2023-03-03T02:14:24;-4.40;99.90
36654;DHT22;22650;49.350;20.898;2023-03-03T02:16:58;-4.40;99.90
36654;DHT22;22650;49.350;20.898;2023-03-03T02:19:37;-4.40;99.90
36654;DHT22;22650;49.350;20.898;2023-03-03T02:22:21;-4.40;99.90
36654;DHT22;22650;49.350;20.898;2023-03-03T02:24:58;-4.50;99.90
36654;DHT22;22650;49.350;20.898;2023-03-03T02:27:35;-4.50;99.90
36654;DHT22;22650;49.350;20.898;2023-03-03T02:30:16;-4.50;99.90
36654;DHT22;22650;49.350;20.898;2023-03-03T02:32:50;-4.50;99.90
36654;DHT22;22650;49.350;20.898;2023-03-03T02:35:29;-4.50;99.90
36654;DHT22;22650;49.350;20.898;2023-03-03T02:38:11;-4.60;99.90
36654;DHT22;22650;49.350;20.898;2023-03-03T02:40:54;-4.60;99.90
36654;DHT22;22650;49.350;20.898;2023-03-03T02:43:35;-4.60;99.90
36654;DHT22;22650;49.350;20.898;2023-03-03T02:46:09;-4.60;99.90
36654;DHT22;22650;49.350;20.898;2023-03-03T02:48:42;-4.60;99.90
36654;DHT22;22650;49.350;20.898;2023-03-03T02:51:16;-4.60;99.90
36654;DHT22;22650;49.350;20.898;2023-03-03T02:53:49;-4.60;99.90
36654;DHT22;22650;49.350;20.898;2023-03-03T02:56:23;-4.60;99.90
36654;DHT22;22650;49.350;20.898;2023-03-03T02:58:58;-4.60;99.90
36654;DHT22;22650;49.350;20.898;2023-03-03T03:01:34;-4.70;99.90
36654;DHT22;22650;49.350;20.898;2023-03-03T03:04:13;-4.70;99.90
36654;DHT22;22650;49.350;20.898;2023-03-03T03:06:50;-4.70;99.90
36654;DHT22;22650;49.350;20.898;2023-03-03T03:09:24;-4.70;99.90
36654;DHT22;22650;49.350;20.898;2023-03-03T03:11:59;-4.70;99.90
36654;DHT22;22650;49.350;20.898;2023-03-03T03:14:38;-4.70;99.90
36654;DHT22;22650;49.350;20.898;2023-03-03T03:17:12;-4.70;99.90
36654;DHT22;22650;49.350;20.898;2023-03-03T03:19:46;-4.70;99.90
36654;DHT22;22650;49.350;20.898;2023-03-03T03:22:20;-4.80;99.90
36654;DHT22;22650;49.350;20.898;2023-03-03T03:24:54;-4.80;99.90
36654;DHT22;22650;49.350;20.898;2023-03-03T03:27:27;-4.80;99.90
36654;DHT22;22650;49.350;20.898;2023-03-03T03:30:03;-4.80;99.90
36654;DHT22;22650;49.350;20.898;2023-03-03T03:32:37;-4.80;99.90
36654;DHT22;22650;49.350;20.898;2023-03-03T03:35:11;-4.80;99.90
36654;DHT22;22650;49.350;20.898;2023-03-03T03:37:44;-4.90;99.90
36654;DHT22;22650;49.350;20.898;2023-03-03T03:40:18;-4.90;99.90
36654;DHT22;22650;49.350;20.898;2023-03-03T03:42:51;-4.90;99.90
36654;DHT22;22650;49.350;20.898;2023-03-03T03:45:26;-4.90;99.90
36654;DHT22;22650;49.350;20.898;2023-03-03T03:48:01;-4.90;99.90
36654;DHT22;22650;49.350;20.898;2023-03-03T03:50:36;-5.00;99.90
36654;DHT22;22650;49.350;20.898;2023-03-03T03:53:10;-5.00;99.90
36654;DHT22;22650;49.350;20.898;2023-03-03T03:55:44;-5.00;99.90
36654;DHT22;22650;49.350;20.898;2023-03-03T03:58:19;-5.00;99.90
36654;DHT22;22650;49.350;20.898;2023-03-03T04:01:02;-5.00;99.90
36654;DHT22;22650;49.350;20.898;2023-03-03T04:03:38;-5.00;99.90
36654;DHT22;22650;49.350;20.898;2023-03-03T04:06:15;-5.00;99.90
36654;DHT22;22650;49.350;20.898;2023-03-03T04:08:48;-5.10;99.90
36654;DHT22;22650;49.350;20.898;2023-03-03T04:11:25;-5.10;99.90
36654;DHT22;22650;49.350;20.898;2023-03-03T04:13:58;-5.10;99.90
36654;DHT22;22650;49.350;20.898;2023-03-03T04:16:33;-5.10;99.90
36654;DHT22;22650;49.350;20.898;2023-03-03T04:19:07;-5.10;99.90
36654;DHT22;22650;49.350;20.898;2023-03-03T04:21:42;-5.10;99.90
36654;DHT22;22650;49.350;20.898;2023-03-03T04:24:16;-5.10;99.90
36654;DHT22;22650;49.350;20.898;2023-03-03T04:26:52;-5.20;99.90
36654;DHT22;22650;49.350;20.898;2023-03-03T04:29:26;-5.20;99.90
36654;DHT22;22650;49.350;20.898;2023-03-03T04:32:01;-5.20;99.90
36654;DHT22;22650;49.350;20.898;2023-03-03T04:34:36;-5.20;99.90
36654;DHT22;22650;49.350;20.898;2023-03-03T04:37:10;-5.20;99.90
36654;DHT22;22650;49.350;20.898;2023-03-03T04:39:43;-5.20;99.90
36654;DHT22;22650;49.350;20.898;2023-03-03T04:42:17;-5.30;99.90
36654;DHT22;22650;49.350;20.898;2023-03-03T04:44:51;-5.20;99.90
36654;DHT22;22650;49.350;20.898;2023-03-03T04:47:26;-5.30;99.90
36654;DHT22;22650;49.350;20.898;2023-03-03T04:50:00;-5.30;99.90
36654;DHT22;22650;49.350;20.898;2023-03-03T04:52:36;-5.30;99.90
36654;DHT22;22650;49.350;20.898;2023-03-03T04:55:11;-5.30;99.90
36654;DHT22;22650;49.350;20.898;2023-03-03T04:57:45;-5.30;99.90
36654;DHT22;22650;49.350;20.898;2023-03-03T05:00:19;-5.40;99.90
36654;DHT22;22650;49.350;20.898;2023-03-03T05:02:54;-5.40;99.90
36654;DHT22;22650;49.350;20.898;2023-03-03T05:05:28;-5.40;99.90
36654;DHT22;22650;49.350;20.898;2023-03-03T05:08:01;-5.40;99.90
36654;DHT22;22650;49.350;20.898;2023-03-03T05:10:35;-5.40;99.90
36654;DHT22;22650;49.350;20.898;2023-03-03T05:13:08;-5.40;99.90
36654;DHT22;22650;49.350;20.898;2023-03-03T05:15:42;-5.40;99.90
36654;DHT22;22650;49.350;20.898;2023-03-03T05:18:17;-5.40;99.90
36654;DHT22;22650;49.350;20.898;2023-03-03T05:20:51;-5.40;99.90
36654;DHT22;22650;49.350;20.898;2023-03-03T05:23:25;-5.50;99.90
36654;DHT22;22650;49.350;20.898;2023-03-03T05:25:58;-5.40;99.90
36654;DHT22;22650;49.350;20.898;2023-03-03T05:28:32;-5.50;99.90
36654;DHT22;22650;49.350;20.898;2023-03-03T05:31:05;-5.40;99.90
36654;DHT22;22650;49.350;20.898;2023-03-03T05:33:40;-5.50;99.90
36654;DHT22;22650;49.350;20.898;2023-03-03T05:36:13;-5.50;99.90
36654;DHT22;22650;49.350;20.898;2023-03-03T05:38:47;-5.50;99.90
36654;DHT22;22650;49.350;20.898;2023-03-03T05:41:20;-5.50;99.90
36654;DHT22;22650;49.350;20.898;2023-03-03T05:43:54;-5.40;99.90
36654;DHT22;22650;49.350;20.898;2023-03-03T05:46:27;-5.50;99.90
36654;DHT22;22650;49.350;20.898;2023-03-03T05:49:02;-5.50;99.90
36654;DHT22;22650;49.350;20.898;2023-03-03T05:51:36;-5.50;99.90
36654;DHT22;22650;49.350;20.898;2023-03-03T05:54:09;-5.40;99.90
36654;DHT22;22650;49.350;20.898;2023-03-03T05:56:43;-5.40;99.90
36654;DHT22;22650;49.350;20.898;2023-03-03T05:59:16;-5.40;99.90
36654;DHT22;22650;49.350;20.898;2023-03-03T06:01:50;-5.40;99.90
36654;DHT22;22650;49.350;20.898;2023-03-03T06:04:25;-5.30;99.90
36654;DHT22;22650;49.350;20.898;2023-03-03T06:06:58;-5.30;99.90
36654;DHT22;22650;49.350;20.898;2023-03-03T06:09:32;-5.30;99.90
36654;DHT22;22650;49.350;20.898;2023-03-03T06:12:06;-5.30;99.90
36654;DHT22;22650;49.350;20.898;2023-03-03T06:14:39;-5.20;99.90
36654;DHT22;22650;49.350;20.898;2023-03-03T06:17:13;-5.20;99.90
36654;DHT22;22650;49.350;20.898;2023-03-03T06:19:48;-5.10;99.90
36654;DHT22;22650;49.350;20.898;2023-03-03T06:22:21;-5.10;99.90
36654;DHT22;22650;49.350;20.898;2023-03-03T06:24:55;-5.00;99.90
36654;DHT22;22650;49.350;20.898;2023-03-03T06:27:28;-5.00;99.90
36654;DHT22;22650;49.350;20.898;2023-03-03T06:30:02;-4.90;99.90
36654;DHT22;22650;49.350;20.898;2023-03-03T06:32:35;-4.90;99.90
36654;DHT22;22650;49.350;20.898;2023-03-03T06:35:11;-4.80;99.90
36654;DHT22;22650;49.350;20.898;2023-03-03T06:37:44;-4.70;99.90
36654;DHT22;22650;49.350;20.898;2023-03-03T06:40:18;-4.70;99.90
36654;DHT22;22650;49.350;20.898;2023-03-03T06:42:51;-4.60;99.90
36654;DHT22;22650;49.350;20.898;2023-03-03T06:45:25;-4.50;99.90
36654;DHT22;22650;49.350;20.898;2023-03-03T06:47:59;-4.50;99.90
36654;DHT22;22650;49.350;20.898;2023-03-03T06:50:34;-4.40;99.90
36654;DHT22;22650;49.350;20.898;2023-03-03T06:53:11;-4.30;99.90
36654;DHT22;22650;49.350;20.898;2023-03-03T06:55:45;-4.20;99.90
36654;DHT22;22650;49.350;20.898;2023-03-03T06:58:20;-4.10;99.90
36654;DHT22;22650;49.350;20.898;2023-03-03T07:00:57;-4.00;99.90
36654;DHT22;22650;49.350;20.898;2023-03-03T07:03:32;-3.90;99.90
36654;DHT22;22650;49.350;20.898;2023-03-03T07:06:20;-3.80;99.90
36654;DHT22;22650;49.350;20.898;2023-03-03T07:08:54;-3.70;99.90
36654;DHT22;22650;49.350;20.898;2023-03-03T07:11:30;-3.50;99.90
36654;DHT22;22650;49.350;20.898;2023-03-03T07:14:14;-3.40;99.90
36654;DHT22;22650;49.350;20.898;2023-03-03T07:16:51;-3.30;99.90
36654;DHT22;22650;49.350;20.898;2023-03-03T07:19:31;-3.20;99.90
36654;DHT22;22650;49.350;20.898;2023-03-03T07:22:14;-3.10;99.90
36654;DHT22;22650;49.350;20.898;2023-03-03T07:24:48;-3.00;99.90
36654;DHT22;22650;49.350;20.898;2023-03-03T07:27:25;-2.90;99.90
36654;DHT22;22650;49.350;20.898;2023-03-03T07:30:15;-2.70;99.90
36654;DHT22;22650;49.350;20.898;2023-03-03T07:32:51;-2.60;99.90
36654;DHT22;22650;49.350;20.898;2023-03-03T07:35:36;-2.50;99.90
36654;DHT22;22650;49.350;20.898;2023-03-03T07:38:19;-2.40;99.90
36654;DHT22;22650;49.350;20.898;2023-03-03T07:40:58;-2.20;99.90
36654;DHT22;22650;49.350;20.898;2023-03-03T07:43:36;-2.00;99.90
36654;DHT22;22650;49.350;20.898;2023-03-03T07:46:23;-1.90;99.90
36654;DHT22;22650;49.350;20.898;2023-03-03T07:48:59;-1.70;99.90
36654;DHT22;22650;49.350;20.898;2023-03-03T07:51:37;-1.50;99.90
36654;DHT22;22650;49.350;20.898;2023-03-03T07:54:33;-1.30;99.90
36654;DHT22;22650;49.350;20.898;2023-03-03T07:57:14;-1.00;99.90
36654;DHT22;22650;49.350;20.898;2023-03-03T07:59:52;-0.80;99.90
36654;DHT22;22650;49.350;20.898;2023-03-03T08:02:37;-0.60;99.90
36654;DHT22;22650;49.350;20.898;2023-03-03T08:05:29;-0.50;99.90
36654;DHT22;22650;49.350;20.898;2023-03-03T08:08:27;-0.20;99.90
36654;DHT22;22650;49.350;20.898;2023-03-03T08:11:04;0.20;99.90
36654;DHT22;22650;49.350;20.898;2023-03-03T08:13:42;0.40;99.90
36654;DHT22;22650;49.350;20.898;2023-03-03T08:16:31;0.60;99.90
36654;DHT22;22650;49.350;20.898;2023-03-03T08:19:10;0.80;99.90
36654;DHT22;22650;49.350;20.898;2023-03-03T08:21:44;1.00;99.90
36654;DHT22;22650;49.350;20.898;2023-03-03T08:24:18;1.20;99.90
36654;DHT22;22650;49.350;20.898;2023-03-03T08:26:53;1.40;99.90
36654;DHT22;22650;49.350;20.898;2023-03-03T08:29:26;1.50;99.90
36654;DHT22;22650;49.350;20.898;2023-03-03T08:32:00;1.70;99.90
36654;DHT22;22650;49.350;20.898;2023-03-03T08:34:33;1.90;99.90
36654;DHT22;22650;49.350;20.898;2023-03-03T08:37:07;2.10;99.90
36654;DHT22;22650;49.350;20.898;2023-03-03T08:39:40;2.30;99.90
36654;DHT22;22650;49.350;20.898;2023-03-03T08:42:16;2.50;99.90
36654;DHT22;22650;49.350;20.898;2023-03-03T08:44:50;2.70;99.90
36654;DHT22;22650;49.350;20.898;2023-03-03T08:47:23;3.00;99.90
36654;DHT22;22650;49.350;20.898;2023-03-03T08:49:57;3.20;99.90
36654;DHT22;22650;49.350;20.898;2023-03-03T08:52:30;3.50;99.90
36654;DHT22;22650;49.350;20.898;2023-03-03T08:55:05;3.80;99.90
36654;DHT22;22650;49.350;20.898;2023-03-03T08:57:41;4.10;99.90
36654;DHT22;22650;49.350;20.898;2023-03-03T09:00:17;4.30;99.90
36654;DHT22;22650;49.350;20.898;2023-03-03T09:02:51;4.50;99.90
36654;DHT22;22650;49.350;20.898;2023-03-03T09:05:25;4.70;99.90
36654;DHT22;22650;49.350;20.898;2023-03-03T09:07:59;4.90;99.90
36654;DHT22;22650;49.350;20.898;2023-03-03T09:10:33;5.20;99.90
36654;DHT22;22650;49.350;20.898;2023-03-03T09:13:13;5.40;99.90
36654;DHT22;22650;49.350;20.898;2023-03-03T09:15:48;5.70;99.90
36654;DHT22;22650;49.350;20.898;2023-03-03T09:18:27;5.90;99.90
36654;DHT22;22650;49.350;20.898;2023-03-03T09:21:16;6.20;99.90
36654;DHT22;22650;49.350;20.898;2023-03-03T09:23:55;6.50;99.90
36654;DHT22;22650;49.350;20.898;2023-03-03T09:26:44;6.70;99.90
36654;DHT22;22650;49.350;20.898;2023-03-03T09:29:24;6.80;99.90
36654;DHT22;22650;49.350;20.898;2023-03-03T09:32:00;7.10;99.90
36654;DHT22;22650;49.350;20.898;2023-03-03T09:34:39;7.30;99.90
36654;DHT22;22650;49.350;20.898;2023-03-03T09:37:21;7.50;99.90
36654;DHT22;22650;49.350;20.898;2023-03-03T09:39:55;7.70;99.90
36654;DHT22;22650;49.350;20.898;2023-03-03T09:42:53;7.90;99.90
36654;DHT22;22650;49.350;20.898;2023-03-03T09:45:40;8.10;98.80
36654;DHT22;22650;49.350;20.898;2023-03-03T09:48:31;8.30;99.90
36654;DHT22;22650;49.350;20.898;2023-03-03T09:51:22;8.50;98.20
36654;DHT22;22650;49.350;20.898;2023-03-03T09:54:25;8.80;96.30
36654;DHT22;22650;49.350;20.898;2023-03-03T09:57:08;9.10;95.70
36654;DHT22;22650;49.350;20.898;2023-03-03T10:00:02;9.40;93.60
36654;DHT22;22650;49.350;20.898;2023-03-03T10:02:52;9.70;92.30
36654;DHT22;22650;49.350;20.898;2023-03-03T10:05:41;9.90;90.70
36654;DHT22;22650;49.350;20.898;2023-03-03T10:08:25;10.10;88.10
36654;DHT22;22650;49.350;20.898;2023-03-03T10:11:09;10.30;91.20
36654;DHT22;22650;49.350;20.898;2023-03-03T10:13:56;10.60;88.10
36654;DHT22;22650;49.350;20.898;2023-03-03T10:16:42;10.70;82.70
36654;DHT22;22650;49.350;20.898;2023-03-03T10:19:33;10.90;84.70
36654;DHT22;22650;49.350;20.898;2023-03-03T10:22:18;11.20;82.90
36654;DHT22;22650;49.350;20.898;2023-03-03T10:25:06;11.30;78.20
36654;DHT22;22650;49.350;20.898;2023-03-03T10:27:56;11.40;75.80
36654;DHT22;22650;49.350;20.898;2023-03-03T10:30:39;11.60;73.60
36654;DHT22;22650;49.350;20.898;2023-03-03T10:33:38;11.80;76.50
36654;DHT22;22650;49.350;20.898;2023-03-03T10:36:33;11.90;70.60
36654;DHT22;22650;49.350;20.898;2023-03-03T10:42:22;12.10;70.70
36654;DHT22;22650;49.350;20.898;2023-03-03T10:45:23;12.10;70.30
36654;DHT22;22650;49.350;20.898;2023-03-03T10:48:12;12.10;72.00
36654;DHT22;22650;49.350;20.898;2023-03-03T10:50:52;11.80;69.80
36654;DHT22;22650;49.350;20.898;2023-03-03T10:53:31;11.90;70.70
36654;DHT22;22650;49.350;20.898;2023-03-03T10:56:26;11.90;72.20
36654;DHT22;22650;49.350;20.898;2023-03-03T10:59:42;12.10;68.00
36654;DHT22;22650;49.350;20.898;2023-03-03T11:02:23;12.20;70.40
36654;DHT22;22650;49.350;20.898;2023-03-03T11:05:16;12.30;68.30
36654;DHT22;22650;49.350;20.898;2023-03-03T11:07:56;12.50;68.10
36654;DHT22;22650;49.350;20.898;2023-03-03T11:10:45;12.60;69.60
36654;DHT22;22650;49.350;20.898;2023-03-03T11:13:25;12.90;66.60
36654;DHT22;22650;49.350;20.898;2023-03-03T11:16:18;12.50;63.40
36654;DHT22;22650;49.350;20.898;2023-03-03T11:19:19;12.50;64.00
36654;DHT22;22650;49.350;20.898;2023-03-03T11:21:59;12.50;64.80
36654;DHT22;22650;49.350;20.898;2023-03-03T11:24:51;12.50;65.40
36654;DHT22;22650;49.350;20.898;2023-03-03T11:27:55;12.60;64.30
36654;DHT22;22650;49.350;20.898;2023-03-03T11:30:48;12.70;64.00
36654;DHT22;22650;49.350;20.898;2023-03-03T11:33:30;12.70;66.80
36654;DHT22;22650;49.350;20.898;2023-03-03T11:36:11;13.00;67.10
36654;DHT22;22650;49.350;20.898;2023-03-03T11:38:52;13.20;65.40
36654;DHT22;22650;49.350;20.898;2023-03-03T11:41:33;13.30;65.00
36654;DHT22;22650;49.350;20.898;2023-03-03T11:44:21;13.50;65.20
36654;DHT22;22650;49.350;20.898;2023-03-03T11:46:58;13.60;63.40
36654;DHT22;22650;49.350;20.898;2023-03-03T11:49:37;13.60;63.30
36654;DHT22;22650;49.350;20.898;2023-03-03T11:52:21;13.50;62.90
36654;DHT22;22650;49.350;20.898;2023-03-03T11:55:01;13.60;65.10
36654;DHT22;22650;49.350;20.898;2023-03-03T11:57:40;13.80;64.80
36654;DHT22;22650;49.350;20.898;2023-03-03T12:00:24;14.00;64.20
36654;DHT22;22650;49.350;20.898;2023-03-03T12:03:13;14.10;61.80
36654;DHT22;22650;49.350;20.898;2023-03-03T12:05:55;14.10;61.50
36654;DHT22;22650;49.350;20.898;2023-03-03T12:08:54;14.10;62.60
36654;DHT22;22650;49.350;20.898;2023-03-03T12:11:35;14.00;60.80
36654;DHT22;22650;49.350;20.898;2023-03-03T12:14:34;14.00;60.70
36654;DHT22;22650;49.350;20.898;2023-03-03T12:17:21;14.00;60.50
36654;DHT22;22650;49.350;20.898;2023-03-03T12:20:02;14.10;60.70
36654;DHT22;22650;49.350;20.898;2023-03-03T12:22:41;14.30;61.50
36654;DHT22;22650;49.350;20.898;2023-03-03T12:25:39;14.10;59.60
36654;DHT22;22650;49.350;20.898;2023-03-03T12:28:17;14.20;60.90
36654;DHT22;22650;49.350;20.898;2023-03-03T12:31:16;14.10;59.80
36654;DHT22;22650;49.350;20.898;2023-03-03T12:33:58;13.90;60.10
36654;DHT22;22650;49.350;20.898;2023-03-03T12:36:49;13.80;60.90
36654;DHT22;22650;49.350;20.898;2023-03-03T12:39:37;13.60;61.00
36654;DHT22;22650;49.350;20.898;2023-03-03T12:42:20;13.30;62.30
36654;DHT22;22650;49.350;20.898;2023-03-03T12:45:04;13.30;62.60
36654;DHT22;22650;49.350;20.898;2023-03-03T12:47:43;13.00;62.70
36654;DHT22;22650;49.350;20.898;2023-03-03T12:50:29;13.10;62.80
36654;DHT22;22650;49.350;20.898;2023-03-03T12:53:12;13.20;64.00
36654;DHT22;22650;49.350;20.898;2023-03-03T12:55:52;12.90;62.80
36654;DHT22;22650;49.350;20.898;2023-03-03T12:58:39;12.90;63.50
36654;DHT22;22650;49.350;20.898;2023-03-03T13:01:26;12.90;64.30
36654;DHT22;22650;49.350;20.898;2023-03-03T13:04:09;13.00;63.90
36654;DHT22;22650;49.350;20.898;2023-03-03T13:06:50;13.00;63.60
36654;DHT22;22650;49.350;20.898;2023-03-03T13:09:36;13.00;62.70
36654;DHT22;22650;49.350;20.898;2023-03-03T13:12:27;13.00;63.50
36654;DHT22;22650;49.350;20.898;2023-03-03T13:15:11;12.90;63.00
36654;DHT22;22650;49.350;20.898;2023-03-03T13:18:01;12.90;62.90
36654;DHT22;22650;49.350;20.898;2023-03-03T13:20:43;12.80;62.70
36654;DHT22;22650;49.350;20.898;2023-03-03T13:23:30;12.60;62.70
36654;DHT22;22650;49.350;20.898;2023-03-03T13:26:14;12.30;63.20
36654;DHT22;22650;49.350;20.898;2023-03-03T13:28:57;12.20;63.50
36654;DHT22;22650;49.350;20.898;2023-03-03T13:31:34;12.20;65.20
36654;DHT22;22650;49.350;20.898;2023-03-03T13:34:17;12.10;64.70
36654;DHT22;22650;49.350;20.898;2023-03-03T13:36:57;12.20;65.10
36654;DHT22;22650;49.350;20.898;2023-03-03T13:39:39;12.20;63.50
36654;DHT22;22650;49.350;20.898;2023-03-03T13:42:21;12.00;64.00
36654;DHT22;22650;49.350;20.898;2023-03-03T13:44:56;12.00;65.80
36654;DHT22;22650;49.350;20.898;2023-03-03T13:47:36;12.10;65.90
36654;DHT22;22650;49.350;20.898;2023-03-03T13:50:19;12.20;65.40
36654;DHT22;22650;49.350;20.898;2023-03-03T13:53:10;12.20;65.20
36654;DHT22;22650;49.350;20.898;2023-03-03T13:55:55;12.20;64.90
36654;DHT22;22650;49.350;20.898;2023-03-03T13:58:36;12.20;65.20
36654;DHT22;22650;49.350;20.898;2023-03-03T14:01:19;12.30;66.60
36654;DHT22;22650;49.350;20.898;2023-03-03T14:04:04;12.20;64.80
36654;DHT22;22650;49.350;20.898;2023-03-03T14:06:38;12.20;65.70
36654;DHT22;22650;49.350;20.898;2023-03-03T14:12:21;12.30;64.90
36654;DHT22;22650;49.350;20.898;2023-03-03T14:15:02;12.20;64.20
36654;DHT22;22650;49.350;20.898;2023-03-03T14:17:46;12.20;65.80
36654;DHT22;22650;49.350;20.898;2023-03-03T14:20:28;12.20;65.10
36654;DHT22;22650;49.350;20.898;2023-03-03T14:23:11;12.20;65.10
36654;DHT22;22650;49.350;20.898;2023-03-03T14:25:58;12.10;63.80
36654;DHT22;22650;49.350;20.898;2023-03-03T14:28:38;11.90;64.90
36654;DHT22;22650;49.350;20.898;2023-03-03T14:31:19;11.80;64.90
36654;DHT22;22650;49.350;20.898;2023-03-03T14:33:59;11.70;65.70
36654;DHT22;22650;49.350;20.898;2023-03-03T14:36:37;11.70;66.10
36654;DHT22;22650;49.350;20.898;2023-03-03T14:39:29;11.60;65.90
36654;DHT22;22650;49.350;20.898;2023-03-03T14:42:11;11.50;66.20
36654;DHT22;22650;49.350;20.898;2023-03-03T14:44:53;11.40;66.20
36654;DHT22;22650;49.350;20.898;2023-03-03T14:47:28;11.30;66.10
36654;DHT22;22650;49.350;20.898;2023-03-03T14:50:31;11.20;65.90
36654;DHT22;22650;49.350;20.898;2023-03-03T14:53:10;11.10;66.30
36654;DHT22;22650;49.350;20.898;2023-03-03T14:55:46;10.90;65.60
36654;DHT22;22650;49.350;20.898;2023-03-03T14:58:28;10.70;65.90
36654;DHT22;22650;49.350;20.898;2023-03-03T15:01:08;10.60;66.00
36654;DHT22;22650;49.350;20.898;2023-03-03T15:03:47;10.50;65.50
36654;DHT22;22650;49.350;20.898;2023-03-03T15:06:36;10.40;65.60
36654;DHT22;22650;49.350;20.898;2023-03-03T15:09:29;10.20;66.70
36654;DHT22;22650;49.350;20.898;2023-03-03T15:12:19;10.00;66.50
36654;DHT22;22650;49.350;20.898;2023-03-03T15:15:06;9.80;68.10
36654;DHT22;22650;49.350;20.898;2023-03-03T15:17:44;9.60;67.90
36654;DHT22;22650;49.350;20.898;2023-03-03T15:20:36;9.50;68.00
36654;DHT22;22650;49.350;20.898;2023-03-03T15:23:32;9.40;69.00
36654;DHT22;22650;49.350;20.898;2023-03-03T15:26:11;9.30;68.70
36654;DHT22;22650;49.350;20.898;2023-03-03T15:28:55;9.20;69.10
36654;DHT22;22650;49.350;20.898;2023-03-03T15:31:41;9.00;70.00
36654;DHT22;22650;49.350;20.898;2023-03-03T15:34:25;8.80;70.30
36654;DHT22;22650;49.350;20.898;2023-03-03T15:37:24;8.60;70.70
36654;DHT22;22650;49.350;20.898;2023-03-03T15:40:08;8.50;71.20
36654;DHT22;22650;49.350;20.898;2023-03-03T15:42:48;8.40;71.90
36654;DHT22;22650;49.350;20.898;2023-03-03T15:45:26;8.20;72.30
36654;DHT22;22650;49.350;20.898;2023-03-03T15:48:27;8.10;72.80
36654;DHT22;22650;49.350;20.898;2023-03-03T15:51:12;7.90;73.50
36654;DHT22;22650;49.350;20.898;2023-03-03T15:54:13;7.80;73.60
36654;DHT22;22650;49.350;20.898;2023-03-03T15:56:54;7.70;74.90
36654;DHT22;22650;49.350;20.898;2023-03-03T15:59:49;7.50;75.00
36654;DHT22;22650;49.350;20.898;2023-03-03T16:02:41;7.40;76.00
36654;DHT22;22650;49.350;20.898;2023-03-03T16:05:21;7.30;76.60
36654;DHT22;22650;49.350;20.898;2023-03-03T16:08:01;7.00;76.70
36654;DHT22;22650;49.350;20.898;2023-03-03T16:10:43;6.90;77.60
36654;DHT22;22650;49.350;20.898;2023-03-03T16:13:27;6.70;78.40
36654;DHT22;22650;49.350;20.898;2023-03-03T16:16:12;6.60;79.10
36654;DHT22;22650;49.350;20.898;2023-03-03T16:18:58;6.40;80.80
36654;DHT22;22650;49.350;20.898;2023-03-03T16:21:57;6.20;82.30
36654;DHT22;22650;49.350;20.898;2023-03-03T16:24:42;6.10;85.40
36654;DHT22;22650;49.350;20.898;2023-03-03T16:27:21;5.90;88.30
36654;DHT22;22650;49.350;20.898;2023-03-03T16:30:12;5.80;90.00
36654;DHT22;22650;49.350;20.898;2023-03-03T16:32:50;5.70;93.10
36654;DHT22;22650;49.350;20.898;2023-03-03T16:35:25;5.50;93.70
36654;DHT22;22650;49.350;20.898;2023-03-03T16:38:04;5.30;97.70
36654;DHT22;22650;49.350;20.898;2023-03-03T16:40:43;5.10;99.60
36654;DHT22;22650;49.350;20.898;2023-03-03T16:43:23;4.90;99.90
36654;DHT22;22650;49.350;20.898;2023-03-03T16:46:04;4.70;99.90